sensor_id;sensor_type;location;lat;lon;timestamp;P1;durP1;ratioP1;P2;durP2;ratioP2
71087;SDS011;58747;50.674;4.616;2022-10-30T00:02:06;9.10;;;4.87;;
71087;SDS011;58747;50.674;4.616;2022-10-30T00:04:31;10.83;;;5.00;;
71087;SDS011;58747;50.674;4.616;2022-10-30T00:06:57;8.97;;;5.20;;
71087;SDS011;58747;50.674;4.616;2022-10-30T00:09:22;8.20;;;4.87;;
71087;SDS011;58747;50.674;4.616;2022-10-30T00:11:47;8.07;;;4.33;;
71087;SDS011;58747;50.674;4.616;2022-10-30T00:14:13;8.40;;;4.00;;
71087;SDS011;58747;50.674;4.616;2022-10-30T00:16:38;9.75;;;4.38;;
71087;SDS011;58747;50.674;4.616;2022-10-30T00:19:03;11.67;;;3.73;;
71087;SDS011;58747;50.674;4.616;2022-10-30T00:21:29;12.60;;;4.33;;
71087;SDS011;58747;50.674;4.616;2022-10-30T00:23:54;10.47;;;4.27;;
71087;SDS011;58747;50.674;4.616;2022-10-30T00:26:20;9.33;;;5.37;;
71087;SDS011;58747;50.674;4.616;2022-10-30T00:28:50;9.35;;;4.70;;
71087;SDS011;58747;50.674;4.616;2022-10-30T00:31:17;6.35;;;3.88;;
71087;SDS011;58747;50.674;4.616;2022-10-30T00:33:42;12.50;;;6.27;;
71087;SDS011;58747;50.674;4.616;2022-10-30T00:36:08;9.67;;;5.43;;
71087;SDS011;58747;50.674;4.616;2022-10-30T00:38:33;13.95;;;4.50;;
71087;SDS011;58747;50.674;4.616;2022-10-30T00:40:59;10.67;;;4.27;;
71087;SDS011;58747;50.674;4.616;2022-10-30T00:43:28;12.23;;;3.87;;
71087;SDS011;58747;50.674;4.616;2022-10-30T00:45:54;8.82;;;4.45;;
71087;SDS011;58747;50.674;4.616;2022-10-30T00:48:23;10.45;;;4.95;;
71087;SDS011;58747;50.674;4.616;2022-10-30T00:50:49;9.05;;;5.47;;
71087;SDS011;58747;50.674;4.616;2022-10-30T00:53:15;12.17;;;4.57;;
71087;SDS011;58747;50.674;4.616;2022-10-30T00:55:45;13.18;;;4.82;;
71087;SDS011;58747;50.674;4.616;2022-10-30T00:58:15;9.30;;;5.07;;
71087;SDS011;58747;50.674;4.616;2022-10-30T01:00:45;8.90;;;4.80;;
71087;SDS011;58747;50.674;4.616;2022-10-30T01:03:14;10.77;;;4.78;;
71087;SDS011;58747;50.674;4.616;2022-10-30T01:05:40;10.50;;;4.93;;
71087;SDS011;58747;50.674;4.616;2022-10-30T01:08:10;8.38;;;4.68;;
71087;SDS011;58747;50.674;4.616;2022-10-30T01:10:35;8.37;;;5.03;;
71087;SDS011;58747;50.674;4.616;2022-10-30T01:13:02;9.07;;;5.05;;
71087;SDS011;58747;50.674;4.616;2022-10-30T01:15:29;10.77;;;4.70;;
71087;SDS011;58747;50.674;4.616;2022-10-30T01:29:19;13.10;;;5.20;;
71087;SDS011;58747;50.674;4.616;2022-10-30T01:32:36;10.95;;;5.18;;
71087;SDS011;58747;50.674;4.616;2022-10-30T01:35:19;11.85;;;5.50;;
71087;SDS011;58747;50.674;4.616;2022-10-30T01:40:27;9.55;;;4.95;;
71087;SDS011;58747;50.674;4.616;2022-10-30T01:42:54;9.23;;;4.87;;
71087;SDS011;58747;50.674;4.616;2022-10-30T01:48:14;10.27;;;5.40;;
71087;SDS011;58747;50.674;4.616;2022-10-30T01:57:17;8.30;;;4.90;;
71087;SDS011;58747;50.674;4.616;2022-10-30T02:02:00;12.00;;;6.37;;
71087;SDS011;58747;50.674;4.616;2022-10-30T02:04:26;11.73;;;5.10;;
71087;SDS011;58747;50.674;4.616;2022-10-30T02:06:52;13.27;;;5.77;;
71087;SDS011;58747;50.674;4.616;2022-10-30T02:09:17;10.43;;;6.45;;
71087;SDS011;58747;50.674;4.616;2022-10-30T02:11:43;11.90;;;6.23;;
71087;SDS011;58747;50.674;4.616;2022-10-30T02:14:10;12.00;;;5.65;;
71087;SDS011;58747;50.674;4.616;2022-10-30T02:16:44;12.90;;;6.13;;
71087;SDS011;58747;50.674;4.616;2022-10-30T02:19:12;11.93;;;5.97;;
71087;SDS011;58747;50.674;4.616;2022-10-30T02:21:37;10.80;;;5.63;;
71087;SDS011;58747;50.674;4.616;2022-10-30T02:24:02;11.55;;;5.75;;
71087;SDS011;58747;50.674;4.616;2022-10-30T02:26:28;8.50;;;5.07;;
71087;SDS011;58747;50.674;4.616;2022-10-30T02:28:53;14.67;;;5.87;;
71087;SDS011;58747;50.674;4.616;2022-10-30T02:31:18;14.77;;;6.17;;
71087;SDS011;58747;50.674;4.616;2022-10-30T02:33:47;13.13;;;6.10;;
71087;SDS011;58747;50.674;4.616;2022-10-30T02:36:13;12.57;;;6.13;;
71087;SDS011;58747;50.674;4.616;2022-10-30T02:38:42;12.48;;;5.50;;
71087;SDS011;58747;50.674;4.616;2022-10-30T02:41:08;11.50;;;6.28;;
71087;SDS011;58747;50.674;4.616;2022-10-30T02:43:36;7.65;;;4.90;;
71087;SDS011;58747;50.674;4.616;2022-10-30T02:46:01;12.67;;;6.47;;
71087;SDS011;58747;50.674;4.616;2022-10-30T02:48:28;12.40;;;6.03;;
71087;SDS011;58747;50.674;4.616;2022-10-30T02:50:58;12.75;;;6.47;;
71087;SDS011;58747;50.674;4.616;2022-10-30T02:53:26;14.27;;;6.30;;
71087;SDS011;58747;50.674;4.616;2022-10-30T02:55:52;11.47;;;6.23;;
71087;SDS011;58747;50.674;4.616;2022-10-30T02:58:17;9.83;;;5.30;;
71087;SDS011;58747;50.674;4.616;2022-10-30T03:00:42;14.60;;;6.30;;
71087;SDS011;58747;50.674;4.616;2022-10-30T03:03:08;11.40;;;5.73;;
71087;SDS011;58747;50.674;4.616;2022-10-30T03:05:33;18.97;;;6.70;;
71087;SDS011;58747;50.674;4.616;2022-10-30T03:07:59;12.83;;;5.03;;
71087;SDS011;58747;50.674;4.616;2022-10-30T03:10:24;11.67;;;5.77;;
71087;SDS011;58747;50.674;4.616;2022-10-30T03:12:49;13.35;;;5.85;;
71087;SDS011;58747;50.674;4.616;2022-10-30T03:15:15;14.57;;;6.73;;
71087;SDS011;58747;50.674;4.616;2022-10-30T03:17:40;8.93;;;5.83;;
71087;SDS011;58747;50.674;4.616;2022-10-30T03:20:06;12.17;;;4.67;;
71087;SDS011;58747;50.674;4.616;2022-10-30T03:22:31;9.13;;;4.88;;
71087;SDS011;58747;50.674;4.616;2022-10-30T03:24:57;13.23;;;5.30;;
71087;SDS011;58747;50.674;4.616;2022-10-30T03:27:22;13.23;;;6.10;;
71087;SDS011;58747;50.674;4.616;2022-10-30T03:29:47;14.47;;;5.70;;
71087;SDS011;58747;50.674;4.616;2022-10-30T03:32:13;14.33;;;5.77;;
71087;SDS011;58747;50.674;4.616;2022-10-30T03:34:38;13.83;;;5.43;;
71087;SDS011;58747;50.674;4.616;2022-10-30T03:37:03;9.57;;;5.17;;
71087;SDS011;58747;50.674;4.616;2022-10-30T03:39:29;10.50;;;5.22;;
71087;SDS011;58747;50.674;4.616;2022-10-30T03:41:54;15.87;;;6.20;;
71087;SDS011;58747;50.674;4.616;2022-10-30T03:44:19;11.87;;;5.63;;
71087;SDS011;58747;50.674;4.616;2022-10-30T03:46:45;9.80;;;4.83;;
71087;SDS011;58747;50.674;4.616;2022-10-30T03:49:10;11.17;;;5.83;;
71087;SDS011;58747;50.674;4.616;2022-10-30T03:51:35;10.57;;;5.43;;
71087;SDS011;58747;50.674;4.616;2022-10-30T03:54:01;12.23;;;5.17;;
71087;SDS011;58747;50.674;4.616;2022-10-30T03:56:26;14.07;;;6.07;;
71087;SDS011;58747;50.674;4.616;2022-10-30T03:58:51;6.80;;;4.40;;
71087;SDS011;58747;50.674;4.616;2022-10-30T04:01:17;10.77;;;4.43;;
71087;SDS011;58747;50.674;4.616;2022-10-30T04:03:42;8.80;;;4.60;;
71087;SDS011;58747;50.674;4.616;2022-10-30T04:06:07;10.63;;;4.60;;
71087;SDS011;58747;50.674;4.616;2022-10-30T04:08:33;11.23;;;5.38;;
71087;SDS011;58747;50.674;4.616;2022-10-30T04:10:58;9.23;;;5.30;;
71087;SDS011;58747;50.674;4.616;2022-10-30T04:13:24;9.37;;;4.27;;
71087;SDS011;58747;50.674;4.616;2022-10-30T04:15:49;13.20;;;4.90;;
71087;SDS011;58747;50.674;4.616;2022-10-30T04:18:16;9.10;;;5.60;;
71087;SDS011;58747;50.674;4.616;2022-10-30T04:20:42;8.82;;;5.00;;
71087;SDS011;58747;50.674;4.616;2022-10-30T04:23:09;9.27;;;4.55;;
71087;SDS011;58747;50.674;4.616;2022-10-30T04:25:38;11.18;;;4.85;;
71087;SDS011;58747;50.674;4.616;2022-10-30T04:28:04;6.53;;;4.50;;
71087;SDS011;58747;50.674;4.616;2022-10-30T04:30:29;10.53;;;4.90;;
71087;SDS011;58747;50.674;4.616;2022-10-30T04:32:59;8.88;;;4.30;;
71087;SDS011;58747;50.674;4.616;2022-10-30T04:35:26;8.98;;;4.65;;
71087;SDS011;58747;50.674;4.616;2022-10-30T04:37:53;10.05;;;4.63;;
71087;SDS011;58747;50.674;4.616;2022-10-30T04:40:20;9.43;;;5.27;;
71087;SDS011;58747;50.674;4.616;2022-10-30T04:42:50;7.10;;;5.13;;
71087;SDS011;58747;50.674;4.616;2022-10-30T04:45:15;11.97;;;5.07;;
71087;SDS011;58747;50.674;4.616;2022-10-30T04:47:40;9.05;;;5.45;;
71087;SDS011;58747;50.674;4.616;2022-10-30T04:50:06;10.43;;;5.00;;
71087;SDS011;58747;50.674;4.616;2022-10-30T04:52:32;9.88;;;4.82;;
71087;SDS011;58747;50.674;4.616;2022-10-30T04:54:58;10.10;;;4.60;;
71087;SDS011;58747;50.674;4.616;2022-10-30T04:57:23;12.50;;;5.00;;
71087;SDS011;58747;50.674;4.616;2022-10-30T04:59:48;8.47;;;5.00;;
71087;SDS011;58747;50.674;4.616;2022-10-30T05:02:14;8.33;;;5.40;;
71087;SDS011;58747;50.674;4.616;2022-10-30T05:04:39;8.48;;;4.80;;
71087;SDS011;58747;50.674;4.616;2022-10-30T05:07:04;10.83;;;5.17;;
71087;SDS011;58747;50.674;4.616;2022-10-30T05:09:31;9.70;;;5.78;;
71087;SDS011;58747;50.674;4.616;2022-10-30T05:11:56;8.57;;;5.03;;
71087;SDS011;58747;50.674;4.616;2022-10-30T05:14:21;9.10;;;5.07;;
71087;SDS011;58747;50.674;4.616;2022-10-30T05:16:47;10.10;;;5.53;;
71087;SDS011;58747;50.674;4.616;2022-10-30T05:19:12;10.17;;;5.40;;
71087;SDS011;58747;50.674;4.616;2022-10-30T05:21:37;10.33;;;5.90;;
71087;SDS011;58747;50.674;4.616;2022-10-30T05:24:03;8.38;;;5.22;;
71087;SDS011;58747;50.674;4.616;2022-10-30T05:26:28;14.90;;;6.30;;
71087;SDS011;58747;50.674;4.616;2022-10-30T05:28:54;11.77;;;4.53;;
71087;SDS011;58747;50.674;4.616;2022-10-30T05:31:19;9.30;;;6.33;;
71087;SDS011;58747;50.674;4.616;2022-10-30T05:33:44;12.83;;;5.23;;
71087;SDS011;58747;50.674;4.616;2022-10-30T05:36:10;9.47;;;5.07;;
71087;SDS011;58747;50.674;4.616;2022-10-30T05:38:35;8.00;;;4.77;;
71087;SDS011;58747;50.674;4.616;2022-10-30T05:41:00;9.23;;;5.17;;
71087;SDS011;58747;50.674;4.616;2022-10-30T05:43:26;8.90;;;5.40;;
71087;SDS011;58747;50.674;4.616;2022-10-30T05:45:51;9.70;;;5.03;;
71087;SDS011;58747;50.674;4.616;2022-10-30T05:48:16;12.97;;;5.43;;
71087;SDS011;58747;50.674;4.616;2022-10-30T05:50:42;8.23;;;4.95;;
71087;SDS011;58747;50.674;4.616;2022-10-30T05:53:08;11.77;;;5.10;;
71087;SDS011;58747;50.674;4.616;2022-10-30T05:55:34;8.98;;;4.78;;
71087;SDS011;58747;50.674;4.616;2022-10-30T05:58:01;11.55;;;4.70;;
71087;SDS011;58747;50.674;4.616;2022-10-30T06:00:29;11.23;;;5.07;;
71087;SDS011;58747;50.674;4.616;2022-10-30T06:02:59;9.90;;;4.60;;
71087;SDS011;58747;50.674;4.616;2022-10-30T06:05:25;12.25;;;4.75;;
71087;SDS011;58747;50.674;4.616;2022-10-30T06:07:53;9.27;;;5.00;;
71087;SDS011;58747;50.674;4.616;2022-10-30T06:10:20;11.95;;;5.47;;
71087;SDS011;58747;50.674;4.616;2022-10-30T06:12:52;9.95;;;5.35;;
71087;SDS011;58747;50.674;4.616;2022-10-30T06:15:21;12.40;;;5.80;;
71087;SDS011;58747;50.674;4.616;2022-10-30T06:17:47;8.85;;;5.07;;
71087;SDS011;58747;50.674;4.616;2022-10-30T06:20:13;11.43;;;5.40;;
71087;SDS011;58747;50.674;4.616;2022-10-30T06:22:39;10.02;;;4.88;;
71087;SDS011;58747;50.674;4.616;2022-10-30T06:25:05;13.20;;;5.70;;
71087;SDS011;58747;50.674;4.616;2022-10-30T06:27:33;11.15;;;4.70;;
71087;SDS011;58747;50.674;4.616;2022-10-30T06:29:59;11.07;;;5.03;;
71087;SDS011;58747;50.674;4.616;2022-10-30T06:32:24;8.05;;;5.20;;
71087;SDS011;58747;50.674;4.616;2022-10-30T06:34:49;13.20;;;5.30;;
71087;SDS011;58747;50.674;4.616;2022-10-30T06:37:15;9.20;;;5.40;;
71087;SDS011;58747;50.674;4.616;2022-10-30T06:39:40;10.40;;;5.27;;
71087;SDS011;58747;50.674;4.616;2022-10-30T06:42:05;7.27;;;4.50;;
71087;SDS011;58747;50.674;4.616;2022-10-30T06:44:31;13.32;;;5.50;;
71087;SDS011;58747;50.674;4.616;2022-10-30T06:46:57;9.60;;;6.63;;
71087;SDS011;58747;50.674;4.616;2022-10-30T06:49:22;9.43;;;4.90;;
71087;SDS011;58747;50.674;4.616;2022-10-30T06:51:47;12.33;;;5.10;;
71087;SDS011;58747;50.674;4.616;2022-10-30T06:54:14;9.02;;;5.15;;
71087;SDS011;58747;50.674;4.616;2022-10-30T06:56:40;8.03;;;5.33;;
71087;SDS011;58747;50.674;4.616;2022-10-30T06:59:05;10.52;;;5.22;;
71087;SDS011;58747;50.674;4.616;2022-10-30T07:01:31;10.40;;;5.43;;
71087;SDS011;58747;50.674;4.616;2022-10-30T07:03:56;9.63;;;5.80;;
71087;SDS011;58747;50.674;4.616;2022-10-30T07:06:22;9.77;;;5.90;;
71087;SDS011;58747;50.674;4.616;2022-10-30T07:08:47;10.87;;;6.90;;
71087;SDS011;58747;50.674;4.616;2022-10-30T07:11:13;8.50;;;5.43;;
71087;SDS011;58747;50.674;4.616;2022-10-30T07:13:38;12.90;;;5.83;;
71087;SDS011;58747;50.674;4.616;2022-10-30T07:16:03;6.43;;;4.53;;
71087;SDS011;58747;50.674;4.616;2022-10-30T07:18:29;10.68;;;5.43;;
71087;SDS011;58747;50.674;4.616;2022-10-30T07:20:54;13.50;;;6.17;;
71087;SDS011;58747;50.674;4.616;2022-10-30T07:23:20;12.77;;;5.77;;
71087;SDS011;58747;50.674;4.616;2022-10-30T07:25:46;11.85;;;6.03;;
71087;SDS011;58747;50.674;4.616;2022-10-30T07:28:11;13.10;;;5.33;;
71087;SDS011;58747;50.674;4.616;2022-10-30T07:30:36;11.47;;;6.50;;
71087;SDS011;58747;50.674;4.616;2022-10-30T07:33:02;15.90;;;6.20;;
71087;SDS011;58747;50.674;4.616;2022-10-30T07:35:29;16.33;;;6.22;;
71087;SDS011;58747;50.674;4.616;2022-10-30T07:38:06;9.43;;;6.07;;
71087;SDS011;58747;50.674;4.616;2022-10-30T07:40:34;10.77;;;4.80;;
71087;SDS011;58747;50.674;4.616;2022-10-30T07:43:00;11.55;;;4.50;;
71087;SDS011;58747;50.674;4.616;2022-10-30T07:45:26;10.80;;;4.67;;
71087;SDS011;58747;50.674;4.616;2022-10-30T07:47:52;11.63;;;5.30;;
71087;SDS011;58747;50.674;4.616;2022-10-30T07:50:18;11.93;;;5.05;;
71087;SDS011;58747;50.674;4.616;2022-10-30T07:52:44;8.83;;;4.80;;
71087;SDS011;58747;50.674;4.616;2022-10-30T07:55:09;9.13;;;5.27;;
71087;SDS011;58747;50.674;4.616;2022-10-30T07:57:38;7.70;;;4.97;;
71087;SDS011;58747;50.674;4.616;2022-10-30T08:00:05;7.88;;;4.57;;
71087;SDS011;58747;50.674;4.616;2022-10-30T08:02:32;12.35;;;5.10;;
71087;SDS011;58747;50.674;4.616;2022-10-30T08:04:57;8.00;;;4.50;;
71087;SDS011;58747;50.674;4.616;2022-10-30T08:07:23;8.53;;;4.93;;
71087;SDS011;58747;50.674;4.616;2022-10-30T08:09:48;11.65;;;4.65;;
71087;SDS011;58747;50.674;4.616;2022-10-30T08:12:14;12.63;;;4.67;;
71087;SDS011;58747;50.674;4.616;2022-10-30T08:14:39;9.67;;;5.00;;
71087;SDS011;58747;50.674;4.616;2022-10-30T08:17:05;9.53;;;4.40;;
71087;SDS011;58747;50.674;4.616;2022-10-30T08:19:31;6.75;;;4.90;;
71087;SDS011;58747;50.674;4.616;2022-10-30T08:21:57;8.13;;;4.55;;
71087;SDS011;58747;50.674;4.616;2022-10-30T08:24:23;10.43;;;4.53;;
71087;SDS011;58747;50.674;4.616;2022-10-30T08:26:51;9.52;;;4.53;;
71087;SDS011;58747;50.674;4.616;2022-10-30T08:29:17;9.27;;;4.83;;
71087;SDS011;58747;50.674;4.616;2022-10-30T08:31:42;8.10;;;4.60;;
71087;SDS011;58747;50.674;4.616;2022-10-30T08:34:08;8.10;;;4.70;;
71087;SDS011;58747;50.674;4.616;2022-10-30T08:36:33;7.00;;;4.73;;
71087;SDS011;58747;50.674;4.616;2022-10-30T08:38:59;8.80;;;4.33;;
71087;SDS011;58747;50.674;4.616;2022-10-30T08:41:24;7.97;;;4.57;;
71087;SDS011;58747;50.674;4.616;2022-10-30T08:43:49;7.43;;;4.07;;
71087;SDS011;58747;50.674;4.616;2022-10-30T08:46:15;9.87;;;5.30;;
71087;SDS011;58747;50.674;4.616;2022-10-30T08:48:40;9.03;;;4.87;;
71087;SDS011;58747;50.674;4.616;2022-10-30T08:51:06;10.07;;;4.77;;
71087;SDS011;58747;50.674;4.616;2022-10-30T08:53:31;6.60;;;4.57;;
71087;SDS011;58747;50.674;4.616;2022-10-30T08:55:56;8.90;;;5.18;;
71087;SDS011;58747;50.674;4.616;2022-10-30T08:58:22;10.20;;;4.50;;
71087;SDS011;58747;50.674;4.616;2022-10-30T09:00:48;9.33;;;5.13;;
71087;SDS011;58747;50.674;4.616;2022-10-30T09:03:13;9.18;;;4.68;;
71087;SDS011;58747;50.674;4.616;2022-10-30T09:05:38;12.50;;;4.60;;
71087;SDS011;58747;50.674;4.616;2022-10-30T09:08:04;7.67;;;4.37;;
71087;SDS011;58747;50.674;4.616;2022-10-30T09:10:29;9.87;;;4.83;;
71087;SDS011;58747;50.674;4.616;2022-10-30T09:12:56;11.65;;;5.25;;
71087;SDS011;58747;50.674;4.616;2022-10-30T09:15:22;10.93;;;4.90;;
71087;SDS011;58747;50.674;4.616;2022-10-30T09:17:53;7.05;;;5.00;;
71087;SDS011;58747;50.674;4.616;2022-10-30T09:20:22;8.80;;;5.27;;
71087;SDS011;58747;50.674;4.616;2022-10-30T09:22:48;11.57;;;5.60;;
71087;SDS011;58747;50.674;4.616;2022-10-30T09:25:14;12.63;;;8.83;;
71087;SDS011;58747;50.674;4.616;2022-10-30T09:27:39;6.43;;;4.22;;
71087;SDS011;58747;50.674;4.616;2022-10-30T09:30:05;10.83;;;5.30;;
71087;SDS011;58747;50.674;4.616;2022-10-30T09:32:30;9.93;;;5.38;;
71087;SDS011;58747;50.674;4.616;2022-10-30T09:34:56;10.07;;;5.60;;
71087;SDS011;58747;50.674;4.616;2022-10-30T09:37:21;10.77;;;6.13;;
71087;SDS011;58747;50.674;4.616;2022-10-30T09:39:51;9.77;;;5.43;;
71087;SDS011;58747;50.674;4.616;2022-10-30T09:47:56;11.30;;;5.10;;
71087;SDS011;58747;50.674;4.616;2022-10-30T09:50:49;13.63;;;5.47;;
71087;SDS011;58747;50.674;4.616;2022-10-30T09:56:02;10.83;;;4.47;;
71087;SDS011;58747;50.674;4.616;2022-10-30T10:01:14;10.00;;;3.95;;
71087;SDS011;58747;50.674;4.616;2022-10-30T10:03:56;9.20;;;3.92;;
71087;SDS011;58747;50.674;4.616;2022-10-30T10:06:28;10.50;;;5.35;;
71087;SDS011;58747;50.674;4.616;2022-10-30T10:11:23;7.13;;;4.82;;
71087;SDS011;58747;50.674;4.616;2022-10-30T10:13:57;12.23;;;6.22;;
71087;SDS011;58747;50.674;4.616;2022-10-30T10:16:28;10.90;;;4.78;;
71087;SDS011;58747;50.674;4.616;2022-10-30T10:19:11;12.30;;;5.43;;
71087;SDS011;58747;50.674;4.616;2022-10-30T10:21:56;12.88;;;4.95;;
71087;SDS011;58747;50.674;4.616;2022-10-30T10:24:24;6.38;;;3.90;;
71087;SDS011;58747;50.674;4.616;2022-10-30T10:37:25;8.30;;;5.00;;
71087;SDS011;58747;50.674;4.616;2022-10-30T10:42:57;11.77;;;5.63;;
71087;SDS011;58747;50.674;4.616;2022-10-30T10:48:41;11.18;;;4.22;;
71087;SDS011;58747;50.674;4.616;2022-10-30T10:51:19;7.45;;;4.80;;
71087;SDS011;58747;50.674;4.616;2022-10-30T10:53:52;8.30;;;4.47;;
71087;SDS011;58747;50.674;4.616;2022-10-30T10:56:23;7.63;;;4.65;;
71087;SDS011;58747;50.674;4.616;2022-10-30T10:58:56;8.77;;;4.47;;
71087;SDS011;58747;50.674;4.616;2022-10-30T11:01:36;12.00;;;5.10;;
71087;SDS011;58747;50.674;4.616;2022-10-30T11:04:04;9.90;;;4.72;;
71087;SDS011;58747;50.674;4.616;2022-10-30T11:06:37;9.82;;;4.38;;
71087;SDS011;58747;50.674;4.616;2022-10-30T11:09:15;7.07;;;4.60;;
71087;SDS011;58747;50.674;4.616;2022-10-30T11:11:43;11.03;;;4.70;;
71087;SDS011;58747;50.674;4.616;2022-10-30T11:14:13;12.27;;;4.45;;
71087;SDS011;58747;50.674;4.616;2022-10-30T11:16:52;8.15;;;4.35;;
71087;SDS011;58747;50.674;4.616;2022-10-30T11:19:21;9.88;;;4.80;;
71087;SDS011;58747;50.674;4.616;2022-10-30T11:21:47;9.03;;;4.40;;
71087;SDS011;58747;50.674;4.616;2022-10-30T11:24:35;8.52;;;4.43;;
71087;SDS011;58747;50.674;4.616;2022-10-30T11:29:48;10.33;;;4.17;;
71087;SDS011;58747;50.674;4.616;2022-10-30T11:32:25;11.10;;;4.53;;
71087;SDS011;58747;50.674;4.616;2022-10-30T11:37:33;7.75;;;3.90;;
71087;SDS011;58747;50.674;4.616;2022-10-30T11:40:01;7.60;;;4.65;;
71087;SDS011;58747;50.674;4.616;2022-10-30T11:42:31;7.90;;;4.23;;
71087;SDS011;58747;50.674;4.616;2022-10-30T11:44:57;12.30;;;4.53;;
71087;SDS011;58747;50.674;4.616;2022-10-30T11:47:33;7.47;;;4.35;;
71087;SDS011;58747;50.674;4.616;2022-10-30T11:50:00;9.33;;;4.00;;
71087;SDS011;58747;50.674;4.616;2022-10-30T11:52:28;11.57;;;4.80;;
71087;SDS011;58747;50.674;4.616;2022-10-30T11:55:02;8.88;;;4.20;;
71087;SDS011;58747;50.674;4.616;2022-10-30T11:57:57;9.68;;;4.22;;
71087;SDS011;58747;50.674;4.616;2022-10-30T12:00:23;11.45;;;5.07;;
71087;SDS011;58747;50.674;4.616;2022-10-30T12:02:52;9.87;;;4.53;;
71087;SDS011;58747;50.674;4.616;2022-10-30T12:07:51;10.70;;;4.32;;
71087;SDS011;58747;50.674;4.616;2022-10-30T12:13:12;12.15;;;3.65;;
71087;SDS011;58747;50.674;4.616;2022-10-30T12:15:39;9.37;;;3.77;;
71087;SDS011;58747;50.674;4.616;2022-10-30T12:18:05;8.38;;;4.25;;
71087;SDS011;58747;50.674;4.616;2022-10-30T12:20:34;8.20;;;4.60;;
71087;SDS011;58747;50.674;4.616;2022-10-30T12:23:08;12.65;;;4.35;;
71087;SDS011;58747;50.674;4.616;2022-10-30T12:25:34;8.52;;;4.82;;
71087;SDS011;58747;50.674;4.616;2022-10-30T12:28:04;11.35;;;4.40;;
71087;SDS011;58747;50.674;4.616;2022-10-30T12:30:33;10.18;;;4.55;;
71087;SDS011;58747;50.674;4.616;2022-10-30T12:44:02;7.78;;;4.25;;
71087;SDS011;58747;50.674;4.616;2022-10-30T12:46:41;9.43;;;3.93;;
71087;SDS011;58747;50.674;4.616;2022-10-30T12:49:21;12.93;;;4.30;;
71087;SDS011;58747;50.674;4.616;2022-10-30T12:54:32;8.18;;;4.40;;
71087;SDS011;58747;50.674;4.616;2022-10-30T12:57:19;7.50;;;3.72;;
71087;SDS011;58747;50.674;4.616;2022-10-30T13:02:50;8.35;;;4.38;;
71087;SDS011;58747;50.674;4.616;2022-10-30T13:05:39;9.00;;;4.57;;
71087;SDS011;58747;50.674;4.616;2022-10-30T13:13:42;7.80;;;3.55;;
71087;SDS011;58747;50.674;4.616;2022-10-30T13:16:17;9.32;;;4.00;;
71087;SDS011;58747;50.674;4.616;2022-10-30T13:19:02;12.73;;;4.43;;
71087;SDS011;58747;50.674;4.616;2022-10-30T13:21:32;6.35;;;4.18;;
71087;SDS011;58747;50.674;4.616;2022-10-30T13:26:51;9.25;;;4.35;;
71087;SDS011;58747;50.674;4.616;2022-10-30T13:35:09;9.50;;;4.13;;
71087;SDS011;58747;50.674;4.616;2022-10-30T13:40:41;9.90;;;4.25;;
71087;SDS011;58747;50.674;4.616;2022-10-30T13:45:45;8.90;;;3.97;;
71087;SDS011;58747;50.674;4.616;2022-10-30T13:53:37;8.63;;;4.05;;
71087;SDS011;58747;50.674;4.616;2022-10-30T13:56:06;7.90;;;4.63;;
71087;SDS011;58747;50.674;4.616;2022-10-30T13:58:45;5.50;;;4.37;;
71087;SDS011;58747;50.674;4.616;2022-10-30T14:01:23;7.70;;;4.20;;
71087;SDS011;58747;50.674;4.616;2022-10-30T14:15:26;7.90;;;4.15;;
71087;SDS011;58747;50.674;4.616;2022-10-30T14:20:39;9.18;;;4.93;;
71087;SDS011;58747;50.674;4.616;2022-10-30T14:23:12;10.55;;;5.20;;
71087;SDS011;58747;50.674;4.616;2022-10-30T14:28:28;11.45;;;5.38;;
71087;SDS011;58747;50.674;4.616;2022-10-30T14:31:13;6.95;;;5.38;;
71087;SDS011;58747;50.674;4.616;2022-10-30T14:36:46;10.35;;;5.07;;
71087;SDS011;58747;50.674;4.616;2022-10-30T14:41:40;7.87;;;4.50;;
71087;SDS011;58747;50.674;4.616;2022-10-30T14:58:37;9.17;;;4.90;;
71087;SDS011;58747;50.674;4.616;2022-10-30T15:06:20;13.88;;;5.30;;
71087;SDS011;58747;50.674;4.616;2022-10-30T15:09:30;10.33;;;4.83;;
71087;SDS011;58747;50.674;4.616;2022-10-30T15:11:53;9.10;;;5.28;;
71087;SDS011;58747;50.674;4.616;2022-10-30T15:14:27;10.95;;;5.05;;
71087;SDS011;58747;50.674;4.616;2022-10-30T15:16:54;10.80;;;5.43;;
71087;SDS011;58747;50.674;4.616;2022-10-30T15:19:20;11.83;;;4.93;;
71087;SDS011;58747;50.674;4.616;2022-10-30T15:21:48;10.07;;;5.03;;
71087;SDS011;58747;50.674;4.616;2022-10-30T15:24:18;11.15;;;5.13;;
71087;SDS011;58747;50.674;4.616;2022-10-30T15:26:49;9.77;;;5.07;;
71087;SDS011;58747;50.674;4.616;2022-10-30T15:29:18;15.93;;;5.10;;
71087;SDS011;58747;50.674;4.616;2022-10-30T15:31:55;10.73;;;4.77;;
71087;SDS011;58747;50.674;4.616;2022-10-30T15:34:51;8.38;;;4.57;;
71087;SDS011;58747;50.674;4.616;2022-10-30T15:37:29;10.13;;;6.53;;
71087;SDS011;58747;50.674;4.616;2022-10-30T15:40:15;12.13;;;5.90;;
71087;SDS011;58747;50.674;4.616;2022-10-30T15:42:45;12.00;;;6.03;;
71087;SDS011;58747;50.674;4.616;2022-10-30T15:45:20;11.53;;;5.47;;
71087;SDS011;58747;50.674;4.616;2022-10-30T15:47:49;10.52;;;6.22;;
71087;SDS011;58747;50.674;4.616;2022-10-30T15:50:22;13.07;;;5.72;;
71087;SDS011;58747;50.674;4.616;2022-10-30T15:52:48;13.73;;;5.83;;
71087;SDS011;58747;50.674;4.616;2022-10-30T15:55:15;11.30;;;6.78;;
71087;SDS011;58747;50.674;4.616;2022-10-30T15:57:45;14.93;;;6.45;;
71087;SDS011;58747;50.674;4.616;2022-10-30T16:00:53;12.13;;;7.03;;
71087;SDS011;58747;50.674;4.616;2022-10-30T16:05:37;15.57;;;6.93;;
71087;SDS011;58747;50.674;4.616;2022-10-30T16:08:03;13.67;;;6.23;;
71087;SDS011;58747;50.674;4.616;2022-10-30T16:10:38;9.73;;;6.30;;
71087;SDS011;58747;50.674;4.616;2022-10-30T16:13:09;17.00;;;7.63;;
71087;SDS011;58747;50.674;4.616;2022-10-30T16:15:42;14.65;;;7.18;;
71087;SDS011;58747;50.674;4.616;2022-10-30T16:20:44;14.07;;;7.38;;
71087;SDS011;58747;50.674;4.616;2022-10-30T16:23:12;11.45;;;6.80;;
71087;SDS011;58747;50.674;4.616;2022-10-30T16:25:38;14.10;;;7.15;;
71087;SDS011;58747;50.674;4.616;2022-10-30T16:28:05;16.40;;;7.25;;
71087;SDS011;58747;50.674;4.616;2022-10-30T16:30:46;13.33;;;6.87;;
71087;SDS011;58747;50.674;4.616;2022-10-30T16:33:12;15.52;;;6.53;;
71087;SDS011;58747;50.674;4.616;2022-10-30T16:35:38;13.02;;;7.03;;
71087;SDS011;58747;50.674;4.616;2022-10-30T16:38:04;14.53;;;7.50;;
71087;SDS011;58747;50.674;4.616;2022-10-30T16:40:29;12.90;;;6.50;;
71087;SDS011;58747;50.674;4.616;2022-10-30T16:42:58;17.85;;;7.72;;
71087;SDS011;58747;50.674;4.616;2022-10-30T16:47:58;20.70;;;8.23;;
71087;SDS011;58747;50.674;4.616;2022-10-30T16:50:32;21.48;;;8.98;;
71087;SDS011;58747;50.674;4.616;2022-10-30T16:53:05;14.20;;;8.65;;
71087;SDS011;58747;50.674;4.616;2022-10-30T16:55:31;13.68;;;8.25;;
71087;SDS011;58747;50.674;4.616;2022-10-30T16:57:57;12.02;;;8.10;;
71087;SDS011;58747;50.674;4.616;2022-10-30T17:00:24;18.37;;;9.60;;
71087;SDS011;58747;50.674;4.616;2022-10-30T17:02:52;14.07;;;7.93;;
71087;SDS011;58747;50.674;4.616;2022-10-30T17:05:31;12.68;;;7.60;;
71087;SDS011;58747;50.674;4.616;2022-10-30T17:16:12;15.00;;;8.83;;
71087;SDS011;58747;50.674;4.616;2022-10-30T17:18:43;13.43;;;8.88;;
71087;SDS011;58747;50.674;4.616;2022-10-30T17:21:09;15.55;;;9.02;;
71087;SDS011;58747;50.674;4.616;2022-10-30T17:23:42;17.10;;;9.23;;
71087;SDS011;58747;50.674;4.616;2022-10-30T17:26:13;14.82;;;9.55;;
71087;SDS011;58747;50.674;4.616;2022-10-30T17:28:39;19.92;;;9.88;;
71087;SDS011;58747;50.674;4.616;2022-10-30T17:34:11;17.52;;;8.77;;
71087;SDS011;58747;50.674;4.616;2022-10-30T17:36:36;18.67;;;11.70;;
71087;SDS011;58747;50.674;4.616;2022-10-30T17:39:03;16.60;;;9.90;;